x

Central Caribbean - 210 Nm Sse Of Kingston, Jamaica (42058) Wave Buoy

4:50 - Tue 21st Oct 2014 All times are EST. -5 hours from GMT.

  • Sig Wave height 4.3ft
  • Swell Direction
  • Peak Period 6s
  • Average Period 5s
  • Wind
    18mph, 22mph gusts
  • Sea Temp 84°f
  • Luft Temp 82°f
  • Sea Pressure 1010mb
  • Central Caribbean - 210 Nm Sse Of Kingston, Jamaica
  • Central Caribbean - 210 Nm Sse Of Kingston, Jamaica

More Historic Weather Station data

Upgrade to MSW Pro to gain access to the past 30 days of data for over 8000 Wavebouys and Weather Stations around the globe.

Join Pro

Comparision Forecast

View Surf forecast
   
Di 10/21 4:50 4.5ft 6s 5s 18 22 mph 1010mb 84f 82f
3:50 4.5ft 6s 5s 27 34 mph 1010mb 84f 81f
2:50 4.5ft 6s 5s 13 18 mph 1009.9mb 84f 83f
1:50 4.5ft 6s 5s 16 18 mph 1010.2mb 84f 83f
12:50 5ft 6s 5s 16 18 mph 1011.1mb 84f 83f
Mo 10/20 11:50 4.5ft 6s 5s 16 18 mph 1011.8mb 84f 83f
10:50 4.5ft 6s 5s 16 18 mph 1012.2mb 84f 83f
9:50 4.5ft 6s 5s 18 22 mph 1012.2mb 84f 83f
8:50 4ft 6s 5s 20 25 mph 1012mb 84f 83f
7:50 4ft 6s 5s 13 16 mph 1011.2mb 84f 83f
6:50 3.5ft 5s 4s 18 20 mph 1009.8mb 84f 83f
5:50 3.5ft 6s 4s 18 20 mph 1009.4mb 84f 83f
4:50 4ft 5s 4s 20 25 mph 1009.7mb 84f 84f
3:50 3.5ft 6s 4s 22 27 mph 1009.6mb 84f 84f
2:50 3.5ft 6s 4s 20 22 mph 1009.6mb 85f 84f
1:50 3.5ft 5s 4s 18 20 mph 1010.2mb 85f 83f
12:50 3ft 5s 4s 13 16 mph 1011.2mb 85f 83f
11:50 3ft 6s 4s 9
mph
1012.5mb 85f 83f
10:50 3.5ft 6s 4s 13 16 mph 1013.6mb 85f 82f
9:50 3.5ft 5s 5s 13 18 mph 1014.1mb 84f 83f
8:50 3.5ft 6s 4s 13 16 mph 1014.1mb 84f 83f
7:50 3.5ft 6s 4s 16 20 mph 1013.4mb 84f 83f
6:50 3.5ft 5s 4s 13 18 mph 1012.8mb 84f 83f
5:50 3.5ft 5s 4s 16 18 mph 1012.2mb 84f 83f
4:50 3ft 5s 4s 16 18 mph 1011.1mb 84f 83f
3:50 3.5ft 6s 4s 16 18 mph 1010.4mb 84f 83f
2:50 3.5ft 6s 4s 16 20 mph 1010.5mb 84f 83f
1:50 3.5ft 6s 4s 16 18 mph 1011.3mb 84f 83f
12:50 3.5ft 5s 5s 13 18 mph 1012.1mb 85f 83f
So 10/19 10:50 3.5ft 6s 5s 16 18 mph 1012.9mb 84f 84f
9:50 3.5ft 6s 5s 16 18 mph 1013.2mb 85f 84f
8:50 3.5ft 6s 5s 13 16 mph 1012.9mb 85f 84f
7:50 3.5ft 6s 5s 13 16 mph 1012mb 85f 84f
6:50 3.5ft 5s 5s 13 18 mph 1011mb 85f 84f
5:50 3.5ft 5s 4s 16 20 mph 1010.5mb 85f 84f
4:50 3.5ft 6s 4s 16 18 mph 1010.1mb 85f 84f
3:50 3.5ft 6s 4s 18 20 mph 1009.9mb 85f 84f
2:50 3.5ft 5s 4s 18 20 mph 1010.3mb 85f 84f
1:50 3.5ft 6s 4s 18 20 mph 1010.8mb 85f 84f
12:50 3.5ft 5s 4s 18
mph
1011.4mb 85f 84f
11:50 3.5ft 6s 4s 18 20 mph 1012.2mb 85f 84f
10:50 3.5ft 6s 4s 18 22 mph 1012.8mb 85f 84f
9:50 3.5ft 5s 4s 16 18 mph 1013.4mb 84f 84f
8:50 3.5ft 6s 4s 16 20 mph 1013mb 84f 84f
7:50 3.5ft 5s 4s 18 20 mph 1012.5mb 84f 84f
6:50 3.5ft 6s 4s 18 20 mph 1012.1mb 84f 84f
5:50 3.5ft 6s 4s 18 22 mph 1011.6mb 84f 84f
4:50 3ft 6s 4s 16 18 mph 1011.2mb 84f 83f
3:50 2.5ft 5s 4s 16 18 mph 1010.8mb 84f 83f
2:50 3ft 6s 4s 13 16 mph 1010.6mb 84f 83f
1:50 3ft 6s 4s 16 18 mph 1010.9mb 85f 83f
12:50 3ft 6s 4s 13 16 mph 1011.8mb 85f 83f
Sa 10/18 11:50 3ft 6s 4s 16 18 mph 1012.5mb 85f 84f
10:50 3ft 6s 4s 13 16 mph 1013.1mb 85f 83f
9:50 3ft 6s 4s 16 18 mph 1013.2mb 85f 84f
8:50 3ft 6s 4s 13 18 mph 1012.8mb 85f 84f
7:50 3ft 6s 4s 13 16 mph 1012.4mb 85f 84f
6:50 3ft 6s 4s 13 16 mph 1011.4mb 85f 84f
5:50 3ft 6s 4s 13 16 mph 1010.8mb 85f 84f
4:50 3.5ft 7s 4s 13 16 mph 1010.6mb 85f 84f
3:50 3.5ft 6s 4s 13 16 mph 1010.4mb 85f 84f
2:50 3.5ft 6s 4s 16 18 mph 1010.4mb 85f 84f
1:50 3.5ft 6s 4s 16 18 mph 1010.8mb 85f 84f
12:50 3.5ft 6s 4s 16 18 mph 1011.4mb 85f 84f
11:50 3.5ft 6s 4s 16 18 mph 1012.4mb 85f 84f
10:50 3.5ft 6s 4s 16 18 mph 1013.1mb 85f 84f
9:50 3.5ft 6s 4s 16 18 mph 1013.2mb 84f 84f
8:50 3.5ft 6s 4s 18 20 mph 1012.6mb 84f 84f
7:50 3.5ft 6s 4s 16 18 mph 1012.1mb 84f 84f
6:50 3.5ft 5s 4s 16 18 mph 1012mb 84f 84f
5:50 3.5ft 6s 4s 16 18 mph 1011.5mb 84f 83f
4:50 3.5ft 6s 4s 18 22 mph 1011mb 85f 84f
3:50 3.5ft 6s 5s 16 18 mph 1010.6mb 84f 83f
2:50 3.5ft 6s 4s 16 18 mph 1010.3mb 84f 83f
1:50 3.5ft 6s 4s 16 18 mph 1010.9mb 84f 83f
12:50 3.5ft 6s 4s 16 20 mph 1011.5mb 84f 84f
Fr 10/17 11:50 3.5ft 6s 4s 16 18 mph 1012.2mb 84f 84f
10:50 3.5ft 5s 4s 16 18 mph 1012.7mb 85f 84f
9:50 3.5ft 5s 4s 16 20 mph 1012.6mb 85f 84f
8:50 3.5ft 5s 5s 16 18 mph 1012.4mb 85f 84f
7:50 3ft 6s 5s 16 18 mph 1012mb 85f 84f
6:50 3.5ft 6s 4s 13 16 mph 1011.2mb 85f 84f
5:50 3ft 6s 5s 13 16 mph 1010.4mb 85f 84f
4:50 3ft 6s 4s 13 16 mph 1010.2mb 85f 84f
3:50 3.5ft 6s 5s 13 16 mph 1010mb 85f 84f
2:50 3ft 5s 4s 13 16 mph 1010.3mb 85f 84f
1:50 3ft 6s 4s 16 18 mph 1010.7mb 85f 84f
12:50 3.5ft 6s 4s 13 16 mph 1011.7mb 85f 84f
11:50 3ft 6s 4s 16 18 mph 1012.6mb 85f 84f